Time;durP1;ratioP1;P1;durP2;ratioP2;P2;SDS_P1;SDS_P2;PMS_P1;PMS_P2;Temp;Humidity;BMP_temperature;BMP_pressure;BME280_temperature;BME280_humidity;BME280_pressure;Samples;Min_cycle;Max_cycle;Signal;HPM_P1;HPM_P2
2021/06/11 00:00:23;;;;;;;6.70;5.97;;;22.00;96.50;;;;;;5055486;28;20032;-65
2021/06/11 00:02:49;;;;;;;7.78;5.78;;;21.90;96.50;;;;;;5055319;28;20329;-64
2021/06/11 00:05:15;;;;;;;7.00;6.40;;;21.90;96.60;;;;;;5072861;28;20078;-65
2021/06/11 00:07:41;;;;;;;6.35;5.75;;;22.00;96.80;;;;;;5073220;28;20025;-65
2021/06/11 00:10:11;;;;;;;6.78;5.88;;;22.00;96.70;;;;;;5072445;28;20052;-65
2021/06/11 00:12:37;;;;;;;6.27;5.67;;;21.90;96.60;;;;;;5055177;28;20437;-65
2021/06/11 00:15:04;;;;;;;10.43;5.82;;;21.90;97.00;;;;;;5072687;28;20032;-64
2021/06/11 00:17:30;;;;;;;6.88;5.20;;;21.90;96.90;;;;;;5072434;28;20123;-64
2021/06/11 00:19:55;;;;;;;6.30;5.65;;;22.00;96.90;;;;;;5054064;28;20060;-66
2021/06/11 00:22:21;;;;;;;6.15;5.55;;;21.90;97.10;;;;;;5054476;28;20045;-65
2021/06/11 00:24:47;;;;;;;5.38;4.88;;;21.90;97.20;;;;;;5072733;28;20122;-65
2021/06/11 00:27:13;;;;;;;6.57;5.05;;;21.80;97.30;;;;;;5072125;28;20028;-65
2021/06/11 00:29:38;;;;;;;6.97;6.03;;;21.70;97.30;;;;;;5054578;28;20507;-65
2021/06/11 00:32:04;;;;;;;5.45;4.95;;;21.70;97.50;;;;;;5071892;28;20028;-65
2021/06/11 00:34:31;;;;;;;8.05;5.43;;;21.70;97.40;;;;;;5054087;28;20020;-65
2021/06/11 00:36:57;;;;;;;5.40;4.90;;;21.80;97.60;;;;;;5071507;28;20067;-66
2021/06/11 00:39:22;;;;;;;7.50;5.78;;;21.80;97.50;;;;;;5072388;28;20036;-65
2021/06/11 00:41:48;;;;;;;5.28;4.78;;;21.80;97.60;;;;;;5053312;28;20039;-65
2021/06/11 00:44:14;;;;;;;5.50;4.72;;;21.80;97.80;;;;;;5071153;28;20020;-64
2021/06/11 00:46:39;;;;;;;5.93;5.43;;;21.70;97.80;;;;;;5072494;28;20117;-63
2021/06/11 00:49:05;;;;;;;5.43;4.93;;;21.70;97.80;;;;;;5071628;28;20067;-64
2021/06/11 00:51:31;;;;;;;6.53;5.93;;;21.60;97.80;;;;;;5072080;28;20060;-64
2021/06/11 00:53:57;;;;;;;6.40;5.50;;;21.60;98.20;;;;;;5071802;28;20086;-69
2021/06/11 00:56:23;;;;;;;6.68;5.38;;;21.60;98.30;;;;;;5053968;28;20496;-64
2021/06/11 00:58:49;;;;;;;9.80;5.45;;;21.50;98.30;;;;;;5054038;28;20082;-64
2021/06/11 01:01:15;;;;;;;6.07;5.50;;;21.40;98.40;;;;;;5071548;28;20036;-66
2021/06/11 01:03:40;;;;;;;5.88;5.35;;;21.30;98.60;;;;;;5054022;28;20024;-64
2021/06/11 01:06:06;;;;;;;6.22;5.63;;;21.40;98.60;;;;;;5070968;28;20037;-64
2021/06/11 01:08:32;;;;;;;5.70;5.15;;;21.50;98.60;;;;;;5071902;28;20028;-64
2021/06/11 01:10:59;;;;;;;5.63;5.13;;;21.50;98.50;;;;;;5071486;28;20530;-69
2021/06/11 01:13:26;;;;;;;6.78;6.18;;;21.50;98.60;;;;;;5072159;28;20028;-63
2021/06/11 01:15:52;;;;;;;8.77;6.22;;;21.40;98.60;;;;;;5071872;28;20047;-63
2021/06/11 01:18:21;;;;;;;6.90;5.53;;;21.40;98.70;;;;;;5070890;28;20677;-63
2021/06/11 01:20:48;;;;;;;7.70;6.53;;;21.30;98.90;;;;;;5071517;28;20524;-63
2021/06/11 01:23:41;;;;;;;6.55;5.50;;;21.30;99.00;;;;;;5071185;28;20036;-63
2021/06/11 01:26:24;;;;;;;7.53;5.95;;;21.30;99.30;;;;;;5052734;28;20456;-64
2021/06/11 01:28:57;;;;;;;7.05;6.35;;;21.30;99.50;;;;;;5053453;28;20031;-63
2021/06/11 01:31:24;;;;;;;6.72;6.10;;;21.20;99.50;;;;;;5052941;28;20111;-63
2021/06/11 01:34:00;;;;;;;6.78;6.10;;;21.20;99.60;;;;;;5071119;28;20028;-63
2021/06/11 01:36:36;;;;;;;7.45;6.80;;;21.10;99.80;;;;;;5071742;28;20486;-63
2021/06/11 01:39:05;;;;;;;6.63;6.03;;;21.10;99.90;;;;;;5070610;28;20029;-64
2021/06/11 01:41:33;;;;;;;11.13;6.65;;;21.00;99.90;;;;;;5053258;28;20486;-63
2021/06/11 01:43:59;;;;;;;6.93;6.32;;;21.10;99.90;;;;;;5070835;28;20028;-63
2021/06/11 01:46:29;;;;;;;7.05;6.35;;;21.10;99.90;;;;;;5070930;28;20415;-62
2021/06/11 01:48:57;;;;;;;6.82;6.20;;;21.10;99.90;;;;;;5071139;28;20142;-64
2021/06/11 01:51:24;;;;;;;7.45;6.75;;;21.00;99.90;;;;;;5052235;28;20055;-62
2021/06/11 01:53:52;;;;;;;8.23;6.15;;;21.00;99.90;;;;;;5052518;28;20028;-63
2021/06/11 01:56:19;;;;;;;6.85;6.18;;;21.00;99.90;;;;;;5070560;28;20029;-64
2021/06/11 01:58:45;;;;;;;7.55;6.63;;;21.00;99.90;;;;;;5053104;28;20032;-63
2021/06/11 02:01:16;;;;;;;6.72;6.03;;;21.00;99.90;;;;;;5070208;28;20048;-63
2021/06/11 02:03:43;;;;;;;;;;;21.00;99.90;;;;;;5053134;28;20035;-62
2021/06/11 02:06:11;;;;;;;6.80;6.20;;;21.00;99.90;;;;;;5069809;28;20288;-63
2021/06/11 02:08:37;;;;;;;7.13;6.53;;;20.90;99.90;;;;;;5052828;28;20028;-63
2021/06/11 02:11:03;;;;;;;6.93;6.15;;;21.00;99.90;;;;;;5069893;28;20056;-63
2021/06/11 02:13:29;;;;;;;7.07;6.38;;;20.90;99.90;;;;;;5070741;28;20078;-63
2021/06/11 02:15:56;;;;;;;8.15;6.93;;;21.00;99.90;;;;;;5070687;28;20070;-63
2021/06/11 02:18:22;;;;;;;7.78;6.10;;;21.00;99.90;;;;;;5069688;28;20208;-63
2021/06/11 02:20:51;;;;;;;7.38;6.68;;;20.90;99.90;;;;;;5070323;28;20132;-63
2021/06/11 02:23:17;;;;;;;6.43;5.93;;;20.90;99.90;;;;;;5069937;28;20024;-63
2021/06/11 02:25:43;;;;;;;7.38;6.68;;;20.90;99.90;;;;;;5052571;28;20448;-63
2021/06/11 02:28:16;;;;;;;6.50;6.00;;;20.90;99.90;;;;;;5069727;28;20029;-63
2021/06/11 02:30:43;;;;;;;6.75;6.15;;;20.90;99.90;;;;;;5070543;28;20029;-63
2021/06/11 02:33:12;;;;;;;7.40;6.13;;;20.90;99.90;;;;;;5069606;28;20051;-63
2021/06/11 02:35:37;;;;;;;7.07;6.20;;;20.90;99.90;;;;;;5052287;28;20066;-63
2021/06/11 02:38:03;;;;;;;8.88;6.50;;;20.80;99.90;;;;;;5069927;28;20361;-68
2021/06/11 02:40:29;;;;;;;8.00;7.25;;;20.80;99.90;;;;;;5052338;28;20032;-64
2021/06/11 02:43:01;;;;;;;8.57;6.47;;;20.80;99.90;;;;;;5070444;28;20431;-63
2021/06/11 02:45:30;;;;;;;6.72;6.07;;;20.80;99.90;;;;;;5069763;28;20028;-63
2021/06/11 02:48:05;;;;;;;6.90;6.30;;;20.80;99.90;;;;;;5052171;28;20047;-63
2021/06/11 02:50:40;;;;;;;6.40;5.90;;;20.80;99.90;;;;;;5052098;28;20029;-63
2021/06/11 02:53:08;;;;;;;7.45;6.13;;;20.80;99.90;;;;;;5069529;28;20379;-64
2021/06/11 02:55:36;;;;;;;10.10;5.97;;;20.70;99.90;;;;;;5070360;28;20030;-64
2021/06/11 02:58:18;;;;;;;6.53;5.90;;;20.70;99.90;;;;;;5070187;28;20519;-64
2021/06/11 03:00:45;;;;;;;7.78;7.07;;;20.70;99.90;;;;;;5051737;28;20036;-63
2021/06/11 03:03:27;;;;;;;8.45;6.55;;;20.70;99.90;;;;;;5069618;28;20017;-64
2021/06/11 03:05:57;;;;;;;;;;;20.60;99.90;;;;;;5071879;28;20103;-64
2021/06/11 03:08:26;;;;;;;6.90;6.30;;;20.60;99.90;;;;;;5074028;28;19904;-64
2021/06/11 03:10:58;;;;;;;8.00;7.20;;;20.60;99.90;;;;;;5056169;28;20199;-64
2021/06/11 03:13:25;;;;;;;10.35;6.88;;;20.50;99.90;;;;;;5073770;28;20024;-64
2021/06/11 03:15:52;;;;;;;8.85;7.28;;;20.50;99.90;;;;;;5074105;28;20093;-64
2021/06/11 03:18:35;;;;;;;8.10;7.40;;;20.40;99.90;;;;;;5055207;28;20059;-65
2021/06/11 03:21:20;;;;;;;8.50;7.13;;;20.40;99.90;;;;;;5055975;28;20421;-64
2021/06/11 03:23:57;;;;;;;8.70;7.15;;;20.40;99.90;;;;;;5056008;28;20032;-64
2021/06/11 03:26:29;;;;;;;9.40;7.50;;;20.30;99.90;;;;;;5055377;28;20033;-65
2021/06/11 03:29:00;;;;;;;8.15;7.05;;;20.30;99.90;;;;;;5055680;28;20027;-64
2021/06/11 03:31:34;;;;;;;8.40;7.53;;;20.30;99.90;;;;;;5054113;28;20354;-64
2021/06/11 03:34:06;;;;;;;8.60;7.63;;;20.30;99.90;;;;;;5074192;28;20488;-64
2021/06/11 03:36:40;;;;;;;8.45;7.60;;;20.30;99.90;;;;;;5074614;28;20021;-64
2021/06/11 03:39:11;;;;;;;11.23;7.80;;;20.40;99.90;;;;;;5056332;28;20033;-64
2021/06/11 03:41:38;;;;;;;9.27;8.38;;;20.30;99.90;;;;;;5073675;28;20039;-64
2021/06/11 03:44:08;;;;;;;8.23;7.43;;;20.30;99.90;;;;;;5055868;28;20082;-64
2021/06/11 03:46:36;;;;;;;8.23;7.38;;;20.40;99.90;;;;;;5073651;28;20068;-64
2021/06/11 03:49:02;;;;;;;8.27;7.47;;;20.30;99.90;;;;;;5055575;28;20070;-64
2021/06/11 03:51:29;;;;;;;14.30;8.07;;;20.30;99.90;;;;;;5072495;28;20057;-65
2021/06/11 03:53:57;;;;;;;8.40;7.60;;;20.30;99.90;;;;;;5055907;28;20498;-65
2021/06/11 03:56:25;;;;;;;12.07;8.45;;;20.30;99.90;;;;;;5072869;28;20085;-64
2021/06/11 03:58:52;;;;;;;10.35;8.07;;;20.30;99.90;;;;;;5073324;28;20458;-64
2021/06/11 04:01:26;;;;;;;8.07;7.38;;;20.30;99.90;;;;;;5072433;28;20029;-64
2021/06/11 04:03:54;;;;;;;10.48;8.07;;;20.40;99.90;;;;;;5073039;28;20047;-64
2021/06/11 04:06:31;;;;;;;8.80;8.00;;;20.40;99.90;;;;;;5072671;28;20020;-66
2021/06/11 04:09:01;;;;;;;11.18;8.93;;;20.40;99.90;;;;;;5055194;28;20457;-64
2021/06/11 04:11:29;;;;;;;8.50;7.68;;;20.40;99.90;;;;;;5054671;28;20028;-64
2021/06/11 04:13:58;;;;;;;10.18;7.65;;;20.30;99.90;;;;;;5055421;28;20025;-64
2021/06/11 04:16:38;;;;;;;10.48;7.63;;;20.40;99.90;;;;;;5071977;28;20024;-64
2021/06/11 04:19:10;;;;;;;8.93;8.02;;;20.30;99.90;;;;;;5073247;28;20021;-64
2021/06/11 04:21:36;;;;;;;10.10;7.47;;;20.30;99.90;;;;;;5055109;28;20052;-64
2021/06/11 04:24:07;;;;;;;8.60;7.53;;;20.40;99.90;;;;;;5072882;28;20034;-63
2021/06/11 04:26:35;;;;;;;10.82;8.27;;;20.40;99.90;;;;;;5054236;28;20039;-64
2021/06/11 04:29:06;;;;;;;10.80;8.15;;;20.30;99.90;;;;;;5072814;28;20427;-63
2021/06/11 04:31:32;;;;;;;8.80;7.80;;;20.40;99.90;;;;;;5054337;28;20029;-63
2021/06/11 04:33:59;;;;;;;8.55;7.20;;;20.50;99.90;;;;;;5072596;28;20100;-64
2021/06/11 04:36:25;;;;;;;9.70;7.28;;;20.60;99.90;;;;;;5054102;28;20028;-64
2021/06/11 04:38:55;;;;;;;8.57;7.78;;;20.70;99.90;;;;;;5054648;28;20253;-63
2021/06/11 04:41:21;;;;;;;8.02;7.22;;;20.50;99.90;;;;;;5053598;28;20039;-63
2021/06/11 04:43:47;;;;;;;8.48;7.60;;;20.50;99.90;;;;;;5072847;28;20477;-64
2021/06/11 04:46:12;;;;;;;11.25;8.00;;;20.40;99.90;;;;;;5072064;28;20024;-65
2021/06/11 04:48:38;;;;;;;8.27;7.57;;;20.40;99.90;;;;;;5072521;28;20032;-64
2021/06/11 04:51:04;;;;;;;10.77;8.27;;;20.50;99.90;;;;;;5072032;28;20529;-64
2021/06/11 04:53:29;;;;;;;10.38;7.32;;;20.60;99.90;;;;;;5053610;28;20608;-63
2021/06/11 04:55:57;;;;;;;9.55;7.50;;;20.80;99.90;;;;;;5054280;28;20031;-63
2021/06/11 04:58:23;;;;;;;8.88;7.97;;;20.90;99.90;;;;;;5053441;28;20115;-64
2021/06/11 05:00:48;;;;;;;8.25;7.55;;;20.90;99.90;;;;;;5072083;28;20036;-63
2021/06/11 05:03:14;;;;;;;12.68;7.95;;;20.90;99.90;;;;;;5053537;28;20378;-64
2021/06/11 05:05:40;;;;;;;11.85;7.60;;;21.00;99.90;;;;;;5053682;28;20386;-64
2021/06/11 05:08:06;;;;;;;8.43;7.55;;;20.90;99.90;;;;;;5071556;28;20074;-63
2021/06/11 05:10:31;;;;;;;12.65;7.25;;;21.00;99.90;;;;;;5071035;28;20338;-64
2021/06/11 05:12:57;;;;;;;10.57;7.05;;;21.00;99.90;;;;;;5053768;28;20031;-63
2021/06/11 05:15:23;;;;;;;9.93;7.57;;;21.10;99.90;;;;;;5071017;28;20064;-64
2021/06/11 05:17:48;;;;;;;8.63;7.75;;;21.00;99.90;;;;;;5053713;28;20466;-64
2021/06/11 05:20:14;;;;;;;9.48;7.72;;;21.10;99.90;;;;;;5071285;28;20127;-65
2021/06/11 05:22:40;;;;;;;8.63;7.70;;;21.00;99.90;;;;;;5053389;28;20047;-64
2021/06/11 05:25:06;;;;;;;19.27;8.82;;;20.90;99.90;;;;;;5071519;28;20032;-65
2021/06/11 05:27:32;;;;;;;8.43;7.55;;;20.90;99.90;;;;;;5070868;28;20039;-64
2021/06/11 05:29:58;;;;;;;10.48;7.68;;;20.70;99.90;;;;;;5070856;28;20025;-65
2021/06/11 05:32:23;;;;;;;9.45;8.38;;;20.90;99.90;;;;;;5070997;28;20032;-64
2021/06/11 05:34:49;;;;;;;8.68;7.68;;;21.10;99.90;;;;;;5071037;28;20024;-63
2021/06/11 05:37:14;;;;;;;9.18;7.88;;;21.20;99.90;;;;;;5070843;28;20074;-65
2021/06/11 05:39:40;;;;;;;10.23;8.68;;;21.00;99.90;;;;;;5053315;28;20078;-64
2021/06/11 05:42:06;;;;;;;10.30;8.30;;;20.90;99.90;;;;;;5071017;28;20444;-64
2021/06/11 05:44:32;;;;;;;11.27;8.23;;;20.90;99.90;;;;;;5052684;28;20028;-64
2021/06/11 05:46:58;;;;;;;10.68;8.98;;;21.00;99.90;;;;;;5053013;28;20058;-64
2021/06/11 05:49:24;;;;;;;11.27;9.23;;;21.10;99.90;;;;;;5070057;28;20373;-64
2021/06/11 05:51:49;;;;;;;9.93;8.80;;;21.30;99.90;;;;;;5070943;28;20136;-64
2021/06/11 05:54:15;;;;;;;14.35;9.15;;;21.30;99.90;;;;;;5051905;28;20465;-70
2021/06/11 05:56:41;;;;;;;15.05;10.02;;;21.40;99.90;;;;;;5052297;28;20089;-64
2021/06/11 05:59:08;;;;;;;11.40;8.95;;;21.40;99.90;;;;;;5070777;28;20040;-64
2021/06/11 06:01:33;;;;;;;12.00;8.45;;;21.30;99.90;;;;;;5069903;28;20135;-65
2021/06/11 06:03:59;;;;;;;11.25;8.65;;;21.50;99.90;;;;;;5051905;28;20055;-65
2021/06/11 06:06:25;;;;;;;12.98;8.50;;;21.50;99.90;;;;;;5048657;28;20028;-65
2021/06/11 06:08:51;;;;;;;11.15;10.00;;;21.60;99.90;;;;;;5032526;28;20060;-65
2021/06/11 06:11:16;;;;;;;12.23;8.95;;;21.70;99.90;;;;;;5032553;28;20512;-66
2021/06/11 06:13:42;;;;;;;13.18;9.15;;;21.60;99.90;;;;;;5070281;28;20367;-64
2021/06/11 06:16:08;;;;;;;12.20;9.13;;;21.60;99.90;;;;;;5052433;28;20074;-64
2021/06/11 06:18:34;;;;;;;11.70;9.70;;;21.50;99.90;;;;;;5051667;28;20020;-64
2021/06/11 06:21:00;;;;;;;12.05;9.45;;;21.50;99.90;;;;;;5070367;28;20065;-64
2021/06/11 06:23:25;;;;;;;13.05;7.90;;;21.50;99.90;;;;;;5051638;28;20025;-65
2021/06/11 06:25:51;;;;;;;10.98;8.88;;;21.60;99.90;;;;;;5052232;28;20347;-65
2021/06/11 06:28:17;;;;;;;16.15;8.23;;;21.90;99.90;;;;;;5051739;28;20183;-70
2021/06/11 06:30:43;;;;;;;9.40;8.50;;;21.90;99.90;;;;;;5070356;28;20055;-64
2021/06/11 06:33:10;;;;;;;14.82;8.25;;;21.90;99.90;;;;;;5052055;28;20044;-64
2021/06/11 06:35:37;;;;;;;9.82;8.80;;;22.00;99.90;;;;;;5051250;28;20442;-64
2021/06/11 06:38:03;;;;;;;11.75;8.95;;;21.90;99.90;;;;;;5051687;28;20051;-64
2021/06/11 06:40:29;;;;;;;10.32;9.25;;;21.70;99.90;;;;;;5050065;28;20459;-64
2021/06/11 06:42:54;;;;;;;9.32;8.45;;;21.40;99.90;;;;;;5051570;28;20059;-64
2021/06/11 06:45:21;;;;;;;9.73;7.57;;;21.40;99.90;;;;;;5051003;28;20166;-65
2021/06/11 06:47:47;;;;;;;11.65;7.38;;;21.70;99.90;;;;;;5051899;28;20025;-64
2021/06/11 06:50:14;;;;;;;9.60;8.77;;;22.10;99.90;;;;;;5051678;28;20391;-65
2021/06/11 06:52:41;;;;;;;13.68;8.88;;;22.00;99.90;;;;;;5069354;28;20110;-65
2021/06/11 06:55:07;;;;;;;10.57;8.65;;;22.10;99.90;;;;;;5051717;28;20119;-64
2021/06/11 06:57:33;;;;;;;10.93;8.73;;;22.30;99.50;;;;;;5050693;28;20106;-65
2021/06/11 06:59:58;;;;;;;8.85;7.95;;;22.50;99.30;;;;;;5070211;28;20028;-64
2021/06/11 07:02:24;;;;;;;9.57;8.63;;;22.40;99.50;;;;;;5068889;28;20044;-64
2021/06/11 07:04:50;;;;;;;9.23;8.32;;;22.50;99.40;;;;;;5051761;28;20062;-64
2021/06/11 07:07:17;;;;;;;9.75;8.40;;;22.50;99.20;;;;;;5051710;28;20446;-63
2021/06/11 07:09:43;;;;;;;9.35;8.40;;;22.40;98.90;;;;;;5050988;28;20032;-64
2021/06/11 07:12:10;;;;;;;13.00;9.15;;;22.30;99.10;;;;;;5051817;28;20037;-65
2021/06/11 07:14:36;;;;;;;9.52;8.63;;;22.20;99.40;;;;;;5043694;28;20052;-65
2021/06/11 07:17:05;;;;;;;15.45;8.50;;;22.40;99.30;;;;;;5037479;28;20025;-65
2021/06/11 07:19:31;;;;;;;8.73;7.82;;;22.70;98.90;;;;;;5048639;28;20025;-64
2021/06/11 07:21:57;;;;;;;9.65;8.30;;;22.50;98.90;;;;;;5039915;28;20127;-64
2021/06/11 07:24:23;;;;;;;12.13;8.40;;;22.80;98.90;;;;;;5062217;28;20119;-71
2021/06/11 07:26:50;;;;;;;8.88;7.68;;;22.90;97.90;;;;;;5040694;28;20433;-66
2021/06/11 07:29:16;;;;;;;6.20;4.10;;;23.10;98.00;;;;;;5036406;28;20021;-51
2021/06/11 07:31:42;;;;;;;5.88;5.38;;;23.60;99.90;;;;;;5038093;28;20028;-52
2021/06/11 07:34:08;;;;;;;6.85;5.25;;;23.90;98.60;;;;;;5038444;28;20043;-52
2021/06/11 07:36:33;;;;;;;6.28;5.68;;;24.20;98.20;;;;;;5045904;28;20028;-55
2021/06/11 07:38:59;;;;;;;6.38;5.40;;;24.50;97.40;;;;;;5045305;28;20052;-53
2021/06/11 07:41:25;;;;;;;7.95;5.20;;;24.70;97.30;;;;;;5044304;28;20059;-57
2021/06/11 07:43:51;;;;;;;5.97;5.25;;;24.90;96.80;;;;;;5030911;28;20107;-55
2021/06/11 07:46:18;;;;;;;12.13;5.78;;;25.00;96.50;;;;;;5054964;28;20029;-53
2021/06/11 07:48:43;;;;;;;7.40;6.18;;;25.10;96.20;;;;;;5056149;28;20070;-55
2021/06/11 07:51:10;;;;;;;10.25;7.15;;;25.10;95.80;;;;;;5055442;28;20044;-51
2021/06/11 07:53:35;;;;;;;8.02;7.18;;;25.00;95.30;;;;;;5042125;28;20036;-56
2021/06/11 07:56:02;;;;;;;7.60;6.32;;;25.10;95.50;;;;;;5041870;28;20020;-52
2021/06/11 07:58:27;;;;;;;11.98;7.03;;;25.20;95.30;;;;;;5040362;28;20033;-51
2021/06/11 08:00:53;;;;;;;8.65;7.70;;;25.20;94.90;;;;;;5032841;28;20406;-52
2021/06/11 08:03:19;;;;;;;10.50;8.55;;;25.20;94.20;;;;;;5054170;28;20104;-54
2021/06/11 08:05:45;;;;;;;8.88;7.95;;;25.40;94.40;;;;;;5043840;28;20074;-52
2021/06/11 08:08:10;;;;;;;8.85;7.45;;;25.40;93.90;;;;;;5043575;28;20020;-51
2021/06/11 08:10:36;;;;;;;8.90;7.15;;;25.50;93.30;;;;;;5056584;28;20044;-51
2021/06/11 08:13:06;;;;;;;9.00;7.60;;;25.70;93.80;;;;;;5052011;28;20104;-51
2021/06/11 08:15:33;;;;;;;7.35;6.40;;;25.70;92.00;;;;;;5037948;28;20084;-50
2021/06/11 08:17:58;;;;;;;7.43;6.50;;;25.50;92.30;;;;;;5071688;28;20040;-50
2021/06/11 08:20:25;;;;;;;9.85;7.13;;;25.60;92.90;;;;;;5049169;28;20016;-52
2021/06/11 08:22:51;;;;;;;11.38;7.13;;;25.60;92.10;;;;;;5058113;28;20041;-52
2021/06/11 08:25:17;;;;;;;8.05;6.85;;;25.80;92.60;;;;;;5041208;28;20031;-52
2021/06/11 08:27:43;;;;;;;10.07;7.30;;;25.90;92.60;;;;;;5050469;28;20047;-51
2021/06/11 08:30:11;;;;;;;8.57;6.57;;;26.20;93.00;;;;;;5038863;28;20049;-51
2021/06/11 08:32:38;;;;;;;10.98;6.47;;;26.50;92.00;;;;;;5049898;28;20033;-51
2021/06/11 08:35:05;;;;;;;6.95;5.70;;;26.70;92.20;;;;;;5055666;28;20059;-52
2021/06/11 08:37:31;;;;;;;8.57;6.05;;;26.80;91.40;;;;;;5051967;28;20032;-52
2021/06/11 08:39:57;;;;;;;8.02;6.97;;;26.90;91.40;;;;;;5062501;28;20021;-51
2021/06/11 08:42:29;;;;;;;8.57;7.78;;;26.90;90.80;;;;;;5041007;28;20064;-58
2021/06/11 08:44:57;;;;;;;11.55;6.88;;;26.80;89.50;;;;;;5036051;28;20056;-51
2021/06/11 08:47:25;;;;;;;7.82;6.97;;;26.90;90.00;;;;;;5033327;28;20442;-57
2021/06/11 08:49:51;;;;;;;9.02;7.18;;;27.00;90.00;;;;;;5033024;28;20029;-50
2021/06/11 08:52:17;;;;;;;10.23;6.43;;;27.00;90.10;;;;;;5051639;28;20053;-50
2021/06/11 08:54:43;;;;;;;9.68;6.50;;;27.50;90.70;;;;;;5050948;28;20053;-64
2021/06/11 08:57:11;;;;;;;8.35;6.47;;;27.50;90.30;;;;;;5051336;28;20097;-66
2021/06/11 08:59:38;;;;;;;9.70;6.88;;;27.80;90.30;;;;;;5050731;28;20044;-66
2021/06/11 09:02:04;;;;;;;10.57;7.13;;;27.50;90.00;;;;;;5051227;28;20044;-71
2021/06/11 09:04:54;;;;;;;8.73;6.93;;;27.30;90.00;;;;;;5031582;28;20099;-51
2021/06/11 09:07:34;;;;;;;10.35;7.47;;;27.40;89.40;;;;;;5032976;28;20476;-56
2021/06/11 09:10:04;;;;;;;10.48;6.85;;;27.70;89.70;;;;;;5050647;28;20025;-51
2021/06/11 09:12:34;;;;;;;8.43;6.88;;;27.60;89.30;;;;;;5049439;28;20044;-52
2021/06/11 09:15:19;;;;;;;10.23;7.80;;;27.80;89.90;;;;;;5050607;28;20044;-49
2021/06/11 09:17:48;;;;;;;16.67;6.80;;;27.90;90.20;;;;;;5050791;28;20017;-69
2021/06/11 09:20:19;;;;;;;8.45;6.88;;;28.10;89.60;;;;;;5050927;28;20104;-70
2021/06/11 09:22:54;;;;;;;8.00;6.18;;;28.10;89.10;;;;;;5039652;28;20358;-68
2021/06/11 09:25:38;;;;;;;7.75;6.93;;;27.70;89.00;;;;;;5060210;28;20021;-71
2021/06/11 09:28:05;;;;;;;8.77;7.20;;;27.70;88.40;;;;;;5036777;28;20016;-63
2021/06/11 09:30:37;;;;;;;9.45;7.13;;;27.70;89.40;;;;;;5038293;28;20021;-56
2021/06/11 09:33:08;;;;;;;7.15;6.47;;;28.00;88.90;;;;;;5050193;28;20024;-74
2021/06/11 09:35:34;;;;;;;11.48;6.50;;;27.90;87.40;;;;;;5050999;28;20040;-74
2021/06/11 09:38:30;;;;;;;7.82;7.03;;;27.80;87.10;;;;;;5070628;28;20024;-71
2021/06/11 09:40:59;;;;;;;8.25;6.65;;;27.90;85.50;;;;;;5050903;28;20044;-69
2021/06/11 09:43:30;;;;;;;9.00;7.18;;;27.90;85.60;;;;;;5041040;28;20489;-76
2021/06/11 09:46:13;;;;;;;7.55;6.85;;;28.00;84.10;;;;;;5042107;28;20033;-69
2021/06/11 09:48:50;;;;;;;8.40;7.57;;;28.00;83.10;;;;;;5051462;28;20029;-68
2021/06/11 09:51:26;;;;;;;10.13;6.93;;;28.00;82.90;;;;;;5051278;28;20048;-65
2021/06/11 09:53:52;;;;;;;10.57;7.50;;;27.70;84.40;;;;;;5070032;28;20024;-67
2021/06/11 09:56:22;;;;;;;9.15;7.88;;;27.70;86.70;;;;;;5069858;28;20044;-68
2021/06/11 09:58:49;;;;;;;12.23;7.82;;;27.80;86.30;;;;;;5070094;28;20099;-66
2021/06/11 10:01:15;;;;;;;8.57;6.82;;;27.70;83.90;;;;;;5069622;28;20029;-70
2021/06/11 10:03:48;;;;;;;10.93;8.25;;;27.80;85.90;;;;;;5050445;28;20090;-67
2021/06/11 10:06:18;;;;;;;9.18;6.72;;;27.80;84.20;;;;;;5051053;28;20453;-66
2021/06/11 10:08:46;;;;;;;6.05;5.45;;;27.90;83.60;;;;;;5030335;28;20123;-67
2021/06/11 10:11:13;;;;;;;6.95;6.28;;;28.20;82.40;;;;;;5048858;28;20068;-68
2021/06/11 10:13:42;;;;;;;7.75;5.78;;;28.40;82.70;;;;;;5047770;28;20025;-70
2021/06/11 10:16:10;;;;;;;5.95;5.45;;;28.30;81.30;;;;;;5030228;28;20056;-68
2021/06/11 10:18:36;;;;;;;13.23;7.30;;;28.40;80.50;;;;;;5047736;28;20086;-68
2021/06/11 10:21:03;;;;;;;4.07;3.72;;;28.70;80.30;;;;;;5048665;28;20056;-70
2021/06/11 10:23:31;;;;;;;4.60;4.20;;;29.00;79.20;;;;;;5030457;28;20466;-68
2021/06/11 10:26:01;;;;;;;7.75;4.72;;;28.90;78.40;;;;;;5030658;28;20040;-69
2021/06/11 10:28:35;;;;;;;5.03;4.63;;;28.90;78.80;;;;;;5030054;28;20071;-67
2021/06/11 10:31:04;;;;;;;4.13;3.72;;;28.80;78.50;;;;;;5030532;28;20021;-67
2021/06/11 10:33:49;;;;;;;6.13;4.32;;;28.90;77.60;;;;;;5029803;28;20061;-67
2021/06/11 10:39:16;;;;;;;9.57;4.95;;;29.60;80.60;;;;;;5048936;28;20033;-67
2021/06/11 10:42:08;;;;;;;6.47;4.93;;;29.50;78.10;;;;;;5028550;28;20044;-67
2021/06/11 10:44:35;;;;;;;6.53;5.88;;;29.30;78.30;;;;;;5029858;28;20017;-67
2021/06/11 10:47:34;;;;;;;5.93;5.18;;;29.00;78.40;;;;;;5030346;28;20132;-68
2021/06/11 10:50:00;;;;;;;4.75;4.15;;;29.00;80.00;;;;;;4997562;28;20474;-69
2021/06/11 10:52:31;;;;;;;8.57;5.32;;;29.40;79.10;;;;;;5029116;28;20063;-67
2021/06/11 10:55:17;;;;;;;10.98;7.43;;;29.30;76.70;;;;;;5030021;28;20048;-68
2021/06/11 10:57:44;;;;;;;9.15;5.85;;;29.70;78.50;;;;;;5029773;28;20245;-67
2021/06/11 11:00:22;;;;;;;12.20;6.47;;;30.20;77.70;;;;;;5048467;28;20348;-67
2021/06/11 11:02:57;;;;;;;10.85;7.40;;;30.50;78.80;;;;;;5047892;28;20037;-68
2021/06/11 11:05:34;;;;;;;5.82;4.38;;;30.80;76.80;;;;;;5029641;28;20075;-78
2021/06/11 11:08:01;;;;;;;4.43;3.53;;;31.00;79.60;;;;;;5029923;28;20025;-66
2021/06/11 11:10:36;;;;;;;6.75;3.58;;;31.30;77.40;;;;;;5047810;28;20047;-70
2021/06/11 11:13:04;;;;;;;5.30;4.05;;;31.20;77.80;;;;;;5047817;28;20111;-68
2021/06/11 11:15:42;;;;;;;9.88;4.88;;;31.30;78.20;;;;;;5028939;28;20051;-67
2021/06/11 11:18:12;;;;;;;17.23;11.57;;;31.20;75.40;;;;;;5029844;28;20168;-72
2021/06/11 11:20:39;;;;;;;3.83;3.15;;;30.70;76.30;;;;;;5029231;28;20087;-71
2021/06/11 11:23:08;;;;;;;3.55;2.65;;;30.30;74.10;;;;;;5029322;28;20029;-69
2021/06/11 11:25:35;;;;;;;2.90;2.60;;;30.20;74.00;;;;;;5047023;28;20060;-68
2021/06/11 11:28:03;;;;;;;9.30;3.85;;;30.20;73.30;;;;;;5033005;28;20124;-68
2021/06/11 11:30:31;;;;;;;2.05;1.95;;;30.30;74.40;;;;;;5033136;28;20032;-69
2021/06/11 11:32:59;;;;;;;3.97;2.60;;;30.40;73.20;;;;;;5051180;28;20033;-67
2021/06/11 11:35:28;;;;;;;7.57;2.95;;;30.50;72.20;;;;;;5032570;28;20099;-69
2021/06/11 11:37:58;;;;;;;4.15;2.22;;;30.30;72.00;;;;;;5033103;28;20032;-68
2021/06/11 11:40:25;;;;;;;3.92;3.53;;;30.50;73.10;;;;;;5051148;28;20025;-78
2021/06/11 11:42:53;;;;;;;4.75;3.60;;;30.50;73.80;;;;;;5033081;28;20037;-67
2021/06/11 11:45:24;;;;;;;10.88;6.93;;;30.50;74.30;;;;;;5033359;28;20052;-67
2021/06/11 11:47:50;;;;;;;6.20;3.88;;;30.40;74.00;;;;;;5051400;28;20084;-68
2021/06/11 11:50:15;;;;;;;7.30;2.72;;;30.20;73.60;;;;;;5033588;28;20029;-66
2021/06/11 11:52:42;;;;;;;4.40;3.15;;;30.00;74.10;;;;;;5007797;28;20499;-69
2021/06/11 11:55:08;;;;;;;5.65;3.92;;;29.70;74.20;;;;;;5009275;28;20395;-68
2021/06/11 11:57:34;;;;;;;7.50;6.25;;;29.60;74.60;;;;;;4992028;28;20141;-68
2021/06/11 12:00:00;;;;;;;5.28;4.78;;;29.80;74.50;;;;;;4976629;28;20030;-68
2021/06/11 12:02:27;;;;;;;6.00;2.72;;;29.80;76.00;;;;;;4991689;28;20141;-68
2021/06/11 12:04:53;;;;;;;3.88;2.35;;;29.60;74.60;;;;;;5008826;28;20080;-68
2021/06/11 12:07:19;;;;;;;4.90;2.38;;;29.70;74.00;;;;;;4993326;28;20164;-68
2021/06/11 12:09:45;;;;;;;8.80;1.60;;;30.00;75.10;;;;;;5000416;28;20047;-68
2021/06/11 12:12:11;;;;;;;7.18;1.90;;;30.30;71.50;;;;;;4974668;28;20034;-72
2021/06/11 12:14:37;;;;;;;4.20;2.08;;;30.60;71.30;;;;;;4989133;28;20114;-68
2021/06/11 12:17:03;;;;;;;4.13;2.10;;;30.70;71.90;;;;;;5009909;28;20056;-68
2021/06/11 12:19:28;;;;;;;14.88;8.60;;;30.70;71.30;;;;;;4992961;28;20127;-66
2021/06/11 12:21:54;;;;;;;16.90;10.52;;;30.70;73.40;;;;;;5009273;28;20132;-68
2021/06/11 12:24:20;;;;;;;4.55;3.58;;;30.90;73.10;;;;;;5005356;28;20037;-67
2021/06/11 12:26:46;;;;;;;4.20;3.65;;;30.70;72.60;;;;;;5000916;28;20026;-68
2021/06/11 12:29:13;;;;;;;6.45;3.83;;;30.50;72.90;;;;;;5031572;28;20131;-67
2021/06/11 12:31:39;;;;;;;2.88;2.47;;;30.40;72.80;;;;;;5031205;28;20378;-69
2021/06/11 12:34:05;;;;;;;4.88;2.50;;;30.10;73.20;;;;;;5031307;28;20440;-68
2021/06/11 12:36:31;;;;;;;3.03;2.25;;;29.90;73.40;;;;;;5025116;28;20432;-68
2021/06/11 12:38:57;;;;;;;1.95;1.60;;;29.90;72.40;;;;;;5013359;28;20044;-68
2021/06/11 12:41:23;;;;;;;2.92;1.50;;;29.60;72.00;;;;;;5029735;28;20033;-68
2021/06/11 12:46:33;;;;;;;9.43;2.50;;;29.90;72.70;;;;;;5030299;28;20478;-68
2021/06/11 12:48:58;;;;;;;3.53;2.65;;;30.10;74.60;;;;;;5030532;28;20057;-69
2021/06/11 12:51:27;;;;;;;11.50;7.10;;;30.50;75.60;;;;;;5033487;28;20056;-77
2021/06/11 12:53:53;;;;;;;10.00;5.85;;;31.00;75.50;;;;;;5031821;28;20040;-67
2021/06/11 12:56:19;;;;;;;5.05;2.88;;;31.30;74.30;;;;;;5031796;28;20343;-67